PAF5320 RPUF-ZZZZ

Flight info

Callsign PAF5320
Flight time N/A
Altitude 7000
Route SBA LUBAN N884 LULBU
Aircraft C208/L-SDFGR/C

Departure

Time 2026-05-05 07:28
Airport Basa Air Base (RPUF)

Arrival

Time N/A
Airport ZZZZ
Time Latitude Longitude Altitude Speed Heading
2026-05-05 07:16 14.97817 120.49232 169 ft 0 kts 120°
2026-05-05 07:22 14.97816 120.49233 169 ft 2 kts 131°
2026-05-05 07:23 14.97791 120.49207 170 ft 7 kts 249°
2026-05-05 07:23 14.97787 120.49152 170 ft 9 kts 266°
2026-05-05 07:23 14.97743 120.49105 170 ft 11 kts 213°
2026-05-05 07:23 14.97672 120.49062 171 ft 13 kts 211°
2026-05-05 07:24 14.97588 120.49016 171 ft 14 kts 207°
2026-05-05 07:24 14.97537 120.48944 171 ft 13 kts 269°
2026-05-05 07:24 14.97569 120.48863 171 ft 12 kts 296°
2026-05-05 07:24 14.97605 120.48792 173 ft 10 kts 297°
2026-05-05 07:25 14.97640 120.48736 174 ft 9 kts 332°
2026-05-05 07:25 14.97667 120.48740 173 ft 0 kts 26°
2026-05-05 07:27 14.97694 120.48754 172 ft 17 kts 27°
2026-05-05 07:27 14.97918 120.48870 171 ft 53 kts 26°
2026-05-05 07:27 14.98328 120.49073 184 ft 74 kts 26°
2026-05-05 07:28 14.98648 120.49230 230 ft 78 kts 29°
2026-05-05 07:28 14.99132 120.49502 353 ft 81 kts 31°
2026-05-05 07:28 15.00422 120.50188 832 ft 87 kts 23°
2026-05-05 07:29 15.00970 120.50438 1104 ft 87 kts 28°
2026-05-05 07:29 15.01398 120.50874 1314 ft 87 kts 72°
2026-05-05 07:29 15.01328 120.51430 1461 ft 78 kts 115°
2026-05-05 07:29 15.01069 120.51894 1608 ft 72 kts 116°
2026-05-05 07:30 15.00894 120.52189 1697 ft 70 kts 118°
2026-05-05 07:30 14.99895 120.52421 1783 ft 91 kts 192°
2026-05-05 07:30 14.99517 120.52205 1835 ft 94 kts 210°
2026-05-05 07:31 14.98882 120.51678 2057 ft 85 kts 210°
2026-05-05 07:31 14.98574 120.51417 2149 ft 88 kts 210°
2026-05-05 07:31 14.97904 120.50882 2224 ft 108 kts 205°
2026-05-05 07:31 14.97202 120.50444 2267 ft 124 kts 199°
2026-05-05 07:32 14.96384 120.50438 2364 ft 120 kts 150°
2026-05-05 07:32 14.95815 120.51026 2510 ft 117 kts 112°
2026-05-05 07:32 14.95775 120.51861 2575 ft 120 kts 72°
2026-05-05 07:32 14.96327 120.52505 2652 ft 130 kts 29°
2026-05-05 07:33 14.97248 120.52523 2804 ft 138 kts 342°
2026-05-05 07:33 14.97899 120.51805 2968 ft 145 kts 287°
2026-05-05 07:33 14.97697 120.50831 3042 ft 142 kts 226°
2026-05-05 07:33 14.96860 120.50423 3118 ft 131 kts 173°
2026-05-05 07:34 14.96571 120.50473 3144 ft 127 kts 154°
2026-05-05 07:34 14.97814 120.52082 3407 ft 142 kts 336°
2026-05-05 07:35 14.98260 120.51248 3572 ft 142 kts 259°
2026-05-05 07:35 14.97704 120.50477 3660 ft 135 kts 199°
2026-05-05 07:35 14.96851 120.50431 3809 ft 117 kts 151°
2026-05-05 07:35 14.96353 120.51022 3911 ft 110 kts 102°
2026-05-05 07:36 14.96427 120.51780 4027 ft 106 kts 62°
2026-05-05 07:36 14.96995 120.52267 4110 ft 112 kts 26°
2026-05-05 07:36 14.97819 120.52211 4092 ft 134 kts 330°
2026-05-05 07:36 14.98232 120.51348 4147 ft 144 kts 263°
2026-05-05 07:37 14.97756 120.50501 4270 ft 135 kts 206°
2026-05-05 07:37 14.96894 120.50431 4339 ft 125 kts 149°
2026-05-05 07:37 14.96444 120.51112 4410 ft 118 kts 87°
2026-05-05 07:37 14.96876 120.51780 4460 ft 124 kts 26°
2026-05-05 07:38 14.97729 120.51690 4558 ft 132 kts 329°
2026-05-05 07:38 14.98154 120.51220 4632 ft 137 kts 303°
2026-05-05 07:38 14.98493 120.49946 4759 ft 140 kts 276°
2026-05-05 07:38 14.98566 120.48936 4891 ft 141 kts 272°
2026-05-05 07:39 14.98559 120.47904 4947 ft 148 kts 266°
2026-05-05 07:39 14.98469 120.46815 4996 ft 157 kts 263°
2026-05-05 07:39 14.98450 120.45680 5012 ft 162 kts 289°
2026-05-05 07:39 14.98764 120.44546 5054 ft 169 kts 272°
2026-05-05 07:40 14.98798 120.43309 5073 ft 174 kts 275°
2026-05-05 07:40 14.98841 120.42475 5077 ft 176 kts 275°
2026-05-05 07:40 14.98924 120.41202 5039 ft 179 kts 276°
2026-05-05 07:40 14.98995 120.39914 5034 ft 178 kts 275°
2026-05-05 07:41 14.99101 120.38223 5035 ft 178 kts 275°
2026-05-05 07:41 14.99191 120.36997 5192 ft 163 kts 275°
2026-05-05 07:41 14.99279 120.35873 5421 ft 151 kts 277°
2026-05-05 07:41 14.99372 120.34840 5574 ft 139 kts 276°
2026-05-05 07:42 14.99461 120.33876 5787 ft 130 kts 275°
2026-05-05 07:42 14.99527 120.32976 5996 ft 121 kts 275°
2026-05-05 07:42 14.99579 120.32140 6189 ft 114 kts 275°
2026-05-05 07:42 14.99629 120.31321 6311 ft 118 kts 274°
2026-05-05 07:43 14.99664 120.30772 6478 ft 113 kts 276°
2026-05-05 07:43 14.99675 120.29948 6617 ft 115 kts 264°
2026-05-05 07:43 14.99577 120.29131 6772 ft 113 kts 263°
2026-05-05 07:43 14.99345 120.28063 6908 ft 120 kts 229°
2026-05-05 07:44 14.98896 120.27806 7016 ft 108 kts 183°
2026-05-05 07:44 14.98176 120.27594 7183 ft 110 kts 191°
2026-05-05 07:44 14.97413 120.27407 7261 ft 117 kts 190°
2026-05-05 07:44 14.96590 120.27223 7365 ft 125 kts 191°
2026-05-05 07:45 14.95791 120.26833 7504 ft 134 kts 231°
2026-05-05 07:45 14.95152 120.26102 7581 ft 140 kts 227°
2026-05-05 07:45 14.94445 120.25387 7655 ft 144 kts 224°
2026-05-05 07:45 14.93648 120.24749 7700 ft 146 kts 198°
2026-05-05 07:46 14.92654 120.24582 7769 ft 147 kts 190°
2026-05-05 07:46 14.91639 120.24380 7856 ft 150 kts 188°
2026-05-05 07:46 14.90598 120.24205 7926 ft 153 kts 186°
2026-05-05 07:46 14.89517 120.24072 7963 ft 159 kts 183°
2026-05-05 07:47 14.88398 120.23956 7977 ft 165 kts 183°
2026-05-05 07:47 14.87262 120.23836 7961 ft 168 kts 183°
2026-05-05 07:47 14.86088 120.23692 7976 ft 171 kts 184°
2026-05-05 07:47 14.84906 120.23526 7968 ft 172 kts 184°
2026-05-05 07:48 14.83720 120.23358 7961 ft 172 kts 184°
2026-05-05 07:48 14.82532 120.23203 7966 ft 172 kts 183°
2026-05-05 07:48 14.81336 120.23056 7963 ft 172 kts 182°
2026-05-05 07:48 14.80143 120.22916 7967 ft 173 kts 181°
2026-05-05 07:49 14.78957 120.22770 7981 ft 174 kts 183°
2026-05-05 07:49 14.77750 120.22606 7991 ft 176 kts 184°
2026-05-05 07:49 14.76536 120.22431 7984 ft 176 kts 183°
2026-05-05 07:49 14.75308 120.22245 7974 ft 176 kts 184°
2026-05-05 07:50 14.74108 120.22057 7973 ft 176 kts 184°
2026-05-05 07:50 14.72901 120.21859 7972 ft 175 kts 185°
2026-05-05 07:50 14.71693 120.21646 7976 ft 176 kts 185°
2026-05-05 07:50 14.70491 120.21421 7973 ft 176 kts 186°
2026-05-05 07:51 14.69291 120.21184 7977 ft 176 kts 187°
2026-05-05 07:51 14.68088 120.20934 7970 ft 176 kts 187°
2026-05-05 07:51 14.66892 120.20675 7971 ft 176 kts 188°
2026-05-05 07:51 14.65700 120.20404 7971 ft 175 kts 188°
2026-05-05 07:52 14.64509 120.20123 7974 ft 176 kts 189°
2026-05-05 07:52 14.63320 120.19830 7972 ft 176 kts 189°
2026-05-05 07:52 14.62146 120.19528 7972 ft 176 kts 190°
2026-05-05 07:52 14.60959 120.19249 7970 ft 173 kts 179°
2026-05-05 07:53 14.60171 120.19374 7973 ft 168 kts 161°
2026-05-05 07:53 14.58616 120.19577 7977 ft 172 kts 173°
2026-05-05 07:53 14.57415 120.19585 7980 ft 173 kts 179°
2026-05-05 07:53 14.56216 120.19380 7976 ft 177 kts 191°
2026-05-05 07:54 14.55058 120.18922 7972 ft 179 kts 201°
2026-05-05 07:54 14.53987 120.18264 7969 ft 181 kts 211°
2026-05-05 07:54 14.52886 120.17736 7965 ft 172 kts 175°
2026-05-05 07:54 14.51773 120.18077 7978 ft 167 kts 155°
2026-05-05 07:55 14.51413 120.18197 7979 ft 168 kts 160°
2026-05-05 07:55 14.50252 120.18404 7976 ft 171 kts 169°
2026-05-05 07:55 14.46831 120.18304 7964 ft 173 kts 181°
2026-05-05 07:56 14.45634 120.18142 7969 ft 173 kts 182°
2026-05-05 07:56 14.44441 120.17969 7965 ft 173 kts 181°
2026-05-05 07:56 14.43253 120.17812 7963 ft 172 kts 181°
2026-05-05 07:56 14.42064 120.17661 7969 ft 172 kts 183°
2026-05-05 07:57 14.40880 120.17447 7967 ft 173 kts 183°
2026-05-05 07:57 14.40089 120.17361 7969 ft 172 kts 180°